createdAt,value
2022-11-08T00:04:29.238Z,99048.16
2022-11-08T00:10:49.995Z,99048.75
2022-11-08T00:16:52.076Z,99041.53
2022-11-08T00:22:55.589Z,99038.03
2022-11-08T00:29:01.950Z,99033.09
2022-11-08T00:35:06.699Z,99031.63
2022-11-08T00:41:09.065Z,99030.44
2022-11-08T00:47:11.275Z,99031.44
2022-11-08T00:53:13.144Z,99021.06
2022-11-08T00:59:18.682Z,99022.34
2022-11-08T01:05:20.569Z,99031.47
2022-11-08T01:11:24.939Z,99038.28
2022-11-08T01:17:26.947Z,99036.47
2022-11-08T01:23:31.332Z,99023.25
2022-11-08T01:29:33.688Z,99034.19
2022-11-08T01:35:37.176Z,99025.50
2022-11-08T01:41:40.291Z,99020.34
2022-11-08T01:47:46.188Z,99033.91
2022-11-08T01:53:49.149Z,99020.25
2022-11-08T01:59:54.351Z,99005.53
2022-11-08T02:05:57.064Z,98986.38
2022-11-08T02:11:59.643Z,98979.94
2022-11-08T02:18:02.050Z,98976.50
2022-11-08T02:24:11.280Z,98979.84
2022-11-08T02:30:13.384Z,98973.69
2022-11-08T02:36:21.208Z,98975.72
2022-11-08T02:42:23.143Z,98978.44
2022-11-08T02:48:26.290Z,98977.84
2022-11-08T02:54:28.633Z,98975.44
2022-11-08T03:00:31.162Z,98971.28
2022-11-08T03:06:33.111Z,98973.34
2022-11-08T03:12:45.342Z,98977.25
2022-11-08T03:31:46.644Z,98964.25
2022-11-08T03:37:53.190Z,98954.53
2022-11-08T03:43:55.070Z,98963.97
2022-11-08T03:49:56.954Z,98963.13
2022-11-08T03:56:02.015Z,98954.63
2022-11-08T04:02:04.172Z,98953.34
2022-11-08T04:08:06.519Z,98952.91
2022-11-08T04:14:28.589Z,98959.84
2022-11-08T04:20:49.665Z,98959.16
2022-11-08T04:27:04.650Z,98951.94
2022-11-08T04:39:24.636Z,98947.06
2022-11-08T04:45:26.564Z,98934.50
2022-11-08T04:51:33.462Z,98931.34
2022-11-08T04:57:39.723Z,98929.00
2022-11-08T05:03:52.244Z,98935.22
2022-11-08T05:10:07.134Z,98926.94
2022-11-08T05:16:20.704Z,98930.19
2022-11-08T05:22:54.133Z,98918.06
2022-11-08T05:28:56.188Z,98914.38
2022-11-08T05:34:58.120Z,98925.34
2022-11-08T05:41:11.755Z,98928.44
2022-11-08T05:47:17.299Z,98919.50
2022-11-08T05:53:20.163Z,98910.66
2022-11-08T05:59:30.524Z,98908.34
2022-11-08T06:05:35.447Z,98912.22
2022-11-08T06:11:37.566Z,98893.84
2022-11-08T06:17:39.475Z,98881.91
2022-11-08T06:23:41.670Z,98891.19
2022-11-08T06:29:43.644Z,98897.16
2022-11-08T06:35:45.795Z,98893.72
2022-11-08T06:41:47.700Z,98893.97
2022-11-08T06:47:49.597Z,98890.34
2022-11-08T06:53:51.601Z,98878.44
2022-11-08T06:59:53.562Z,98886.31
2022-11-08T07:05:55.482Z,98886.13
2022-11-08T07:11:57.509Z,98883.69
2022-11-08T07:18:09.402Z,98878.50
2022-11-08T07:25:04.111Z,98883.69
2022-11-08T07:31:06.858Z,98881.41
2022-11-08T07:37:08.786Z,98885.31
2022-11-08T07:43:12.648Z,98878.31
2022-11-08T07:49:24.930Z,98876.63
2022-11-08T07:55:27.859Z,98874.88
2022-11-08T08:01:29.847Z,98883.53
2022-11-08T08:07:31.884Z,98879.78
2022-11-08T08:13:33.812Z,98866.91
2022-11-08T08:19:35.733Z,98855.66
2022-11-08T08:25:37.741Z,98829.09
2022-11-08T08:31:39.625Z,98837.00
2022-11-08T08:37:41.581Z,98840.00
2022-11-08T08:43:43.434Z,98836.19
2022-11-08T08:49:45.346Z,98800.44
2022-11-08T08:55:54.039Z,98810.88
2022-11-08T09:01:56.099Z,98817.66
2022-11-08T09:07:58.161Z,98820.16
2022-11-08T09:14:00.110Z,98830.56
2022-11-08T09:20:02.120Z,98811.28
2022-11-08T09:26:06.303Z,98813.13
2022-11-08T09:32:08.278Z,98824.88
2022-11-08T09:45:09.900Z,98819.78
2022-11-08T09:51:18.935Z,98826.81
2022-11-08T09:57:32.914Z,98822.97
2022-11-08T10:03:34.880Z,98824.97
2022-11-08T10:10:27.856Z,98834.56
2022-11-08T10:17:12.374Z,98829.16
2022-11-08T10:23:47.930Z,98820.63
2022-11-08T10:29:57.581Z,98816.16
2022-11-08T10:36:21.940Z,98816.75
2022-11-08T10:42:45.315Z,98784.28
2022-11-08T10:48:47.273Z,98776.53
2022-11-08T10:54:55.445Z,98763.38
2022-11-08T11:01:21.864Z,98744.31
2022-11-08T11:07:36.542Z,98742.28
2022-11-08T11:13:38.559Z,98740.75
2022-11-08T11:19:51.832Z,98734.59
2022-11-08T11:25:53.803Z,98734.63
2022-11-08T11:32:19.167Z,98746.66
2022-11-08T11:38:49.084Z,98727.50
2022-11-08T11:44:56.722Z,98727.03
2022-11-08T11:50:59.186Z,98726.81
2022-11-08T11:57:10.528Z,98710.63
2022-11-08T12:03:32.798Z,98704.25
2022-11-08T12:10:14.628Z,98698.78
2022-11-08T12:16:33.891Z,98679.91
2022-11-08T12:23:09.180Z,98674.84
2022-11-08T12:37:40.784Z,98668.31
2022-11-08T12:44:09.648Z,98651.19
2022-11-08T12:51:02.076Z,98645.47
2022-11-08T12:57:14.325Z,98629.41
2022-11-08T13:03:47.052Z,98631.09
2022-11-08T13:10:04.375Z,98625.66
2022-11-08T13:16:16.295Z,98618.31
2022-11-08T13:22:31.093Z,98614.78
2022-11-08T13:28:44.820Z,98610.66
2022-11-08T13:35:17.158Z,98603.63
2022-11-08T13:41:21.374Z,98607.72
2022-11-08T13:47:43.443Z,98617.97
2022-11-08T13:53:54.314Z,98610.56
2022-11-08T14:00:04.806Z,98604.00
2022-11-08T14:06:51.301Z,98615.28
2022-11-08T14:13:26.351Z,98610.44
2022-11-08T14:19:35.563Z,98599.03
2022-11-08T14:25:39.785Z,98605.66
2022-11-08T14:31:41.815Z,98596.13
2022-11-08T14:37:44.715Z,98591.16
2022-11-08T14:43:48.513Z,98602.84
2022-11-08T14:56:11.046Z,98595.59
2022-11-08T15:02:13.205Z,98603.44
2022-11-08T15:08:31.623Z,98598.72
2022-11-08T15:14:36.796Z,98597.56
2022-11-08T15:20:52.628Z,98596.19
2022-11-08T15:27:12.678Z,98588.53
2022-11-08T15:34:25.894Z,98587.50
2022-11-08T15:40:31.930Z,98596.78
2022-11-08T15:46:40.491Z,98577.47
2022-11-08T15:52:50.919Z,98590.28
2022-11-08T15:58:52.892Z,98601.25
2022-11-08T16:04:54.810Z,98588.75
2022-11-08T16:11:01.277Z,98589.00
2022-11-08T16:17:03.389Z,98598.56
2022-11-08T16:23:09.874Z,98594.00
2022-11-08T16:29:24.738Z,98606.41
2022-11-08T16:35:27.043Z,98602.09
2022-11-08T16:41:29.029Z,98618.81
2022-11-08T16:47:32.605Z,98605.25
2022-11-08T16:53:36.829Z,98596.25
2022-11-08T16:59:38.780Z,98594.00
2022-11-08T17:05:41.454Z,98603.25
2022-11-08T17:11:43.371Z,98590.84
2022-11-08T17:17:46.319Z,98612.84
2022-11-08T17:23:57.059Z,98610.41
2022-11-08T17:30:00.214Z,98614.59
2022-11-08T17:36:21.832Z,98624.69
2022-11-08T17:42:24.140Z,98616.00
2022-11-08T17:48:26.124Z,98611.13
2022-11-08T17:54:28.191Z,98614.38
2022-11-08T18:00:30.268Z,98629.28
2022-11-08T18:06:32.526Z,98629.16
2022-11-08T18:12:34.538Z,98637.81
2022-11-08T18:18:37.396Z,98644.25
2022-11-08T18:24:39.336Z,98650.78
2022-11-08T18:30:46.591Z,98634.41
2022-11-08T18:43:20.573Z,98632.78
2022-11-08T18:49:22.924Z,98632.16
2022-11-08T18:55:24.821Z,98629.97
2022-11-08T19:01:26.736Z,98632.31
2022-11-08T19:07:29.668Z,98631.84
2022-11-08T19:13:33.809Z,98632.66
2022-11-08T19:19:37.122Z,98623.41
2022-11-08T19:25:39.020Z,98624.59
2022-11-08T19:31:42.774Z,98624.69
2022-11-08T19:37:45.691Z,98622.00
2022-11-08T19:44:07.393Z,98611.38
2022-11-08T19:50:09.381Z,98621.19
2022-11-08T19:56:17.739Z,98619.56
2022-11-08T20:02:19.923Z,98616.16
2022-11-08T20:08:22.142Z,98620.84
2022-11-08T20:14:24.107Z,98627.84
2022-11-08T20:20:26.124Z,98633.00
2022-11-08T20:26:28.121Z,98630.44
2022-11-08T20:32:30.109Z,98628.91
2022-11-08T20:38:32.984Z,98626.09
2022-11-08T20:44:34.993Z,98611.53
2022-11-08T20:50:39.140Z,98615.66
2022-11-08T20:56:41.049Z,98623.53
2022-11-08T21:02:42.991Z,98627.81
2022-11-08T21:09:09.900Z,98620.59
2022-11-08T21:15:08.464Z,98602.06
2022-11-08T21:21:19.035Z,98600.00
2022-11-08T21:27:23.597Z,98602.44
2022-11-08T21:33:27.837Z,98603.41
2022-11-08T21:39:29.723Z,98610.31
2022-11-08T21:45:31.619Z,98620.16
2022-11-08T21:51:33.606Z,98605.97
2022-11-08T21:57:36.178Z,98600.00
2022-11-08T22:03:47.308Z,98601.75
2022-11-08T22:09:50.417Z,98607.84
2022-11-08T22:15:52.338Z,98618.22
2022-11-08T22:28:10.562Z,98624.91
2022-11-08T22:34:12.854Z,98612.88
2022-11-08T22:40:16.374Z,98610.16
2022-11-08T22:46:18.778Z,98610.44
2022-11-08T22:52:20.699Z,98617.19
2022-11-08T22:58:24.040Z,98608.88
2022-11-08T23:04:25.910Z,98610.75
2022-11-08T23:10:28.059Z,98595.78
2022-11-08T23:16:36.052Z,98593.50
2022-11-08T23:22:56.761Z,98598.59
2022-11-08T23:29:17.039Z,98608.59
2022-11-08T23:35:21.032Z,98599.16
2022-11-08T23:41:42.395Z,98599.41
2022-11-08T23:47:44.504Z,98603.66
2022-11-08T23:53:46.421Z,98597.66
2022-11-08T23:59:48.358Z,98600.75
